Time,TemperatureF,DewpointF,PressureIn,WindDirection,WindDirectionDegrees,WindSpeedMPH,WindSpeedGustMPH,Humidity,HourlyPrecipIn,Conditions,Clouds,dailyrainin,SolarRadiationWatts/m^2,SoftwareType,DateUTC
2013-03-18 00:00:00,20.0,13.0,-100.00,East,90,7.0,-999.0,72,-99.99,,,-99.99,0.000000,,2013-03-18 04:00:00,
2013-03-18 00:42:00,20.0,13.0,-100.00,East,90,7.0,-999.0,72,-99.99,,,-99.99,0.000000,,2013-03-18 04:42:00,
2013-03-18 00:53:00,20.0,13.0,-100.00,East,90,7.0,-999.0,72,-99.99,,,-99.99,0.000000,,2013-03-18 04:53:00,
2013-03-18 01:00:00,20.0,12.0,-100.00,East,90,7.0,-999.0,71,-99.99,,,-99.99,0.000000,,2013-03-18 05:00:00,
2013-03-18 01:43:00,20.0,12.0,-100.00,East,90,7.0,-999.0,71,-99.99,,,-99.99,0.000000,,2013-03-18 05:43:00,
2013-03-18 01:52:00,20.0,12.0,-100.00,East,90,7.0,-999.0,71,-99.99,,,-99.99,0.000000,,2013-03-18 05:52:00,
2013-03-18 02:00:00,20.0,12.0,-100.00,East,90,7.0,-999.0,72,-99.99,,,-99.99,0.000000,,2013-03-18 06:00:00,
2013-03-18 02:42:00,20.0,12.0,-100.00,East,90,7.0,-999.0,72,-99.99,,,-99.99,0.000000,,2013-03-18 06:42:00,
2013-03-18 02:53:00,20.0,12.0,-100.00,East,90,7.0,-999.0,72,-99.99,,,-99.99,0.000000,,2013-03-18 06:53:00,
2013-03-18 03:00:00,19.0,12.0,-100.00,East,90,7.0,-999.0,73,-99.99,,,-99.99,0.000000,,2013-03-18 07:00:00,
2013-03-18 03:43:00,19.0,12.0,-100.00,East,90,7.0,-999.0,73,-99.99,,,-99.99,0.000000,,2013-03-18 07:43:00,
2013-03-18 03:53:00,19.0,12.0,-100.00,East,90,7.0,-999.0,73,-99.99,,,-99.99,0.000000,,2013-03-18 07:53:00,
2013-03-18 04:00:00,18.0,12.0,-100.00,East,90,7.0,-999.0,76,-99.99,,,-99.99,0.000000,,2013-03-18 08:00:00,
2013-03-18 04:43:00,18.0,12.0,-100.00,East,90,7.0,-999.0,76,-99.99,,,-99.99,0.000000,,2013-03-18 08:43:00,
2013-03-18 04:53:00,18.0,12.0,-100.00,East,90,7.0,-999.0,76,-99.99,,,-99.99,0.000000,,2013-03-18 08:53:00,
2013-03-18 05:00:00,18.0,12.0,-100.00,East,90,7.0,-999.0,77,-99.99,,,-99.99,0.000000,,2013-03-18 09:00:00,
2013-03-18 05:43:00,18.0,12.0,-100.00,East,90,7.0,-999.0,77,-99.99,,,-99.99,0.000000,,2013-03-18 09:43:00,
2013-03-18 05:53:00,18.0,12.0,-100.00,East,90,7.0,-999.0,77,-99.99,,,-99.99,0.000000,,2013-03-18 09:53:00,
2013-03-18 06:00:00,18.0,13.0,-100.00,East,90,7.0,-999.0,78,-99.99,,,-99.99,0.000000,,2013-03-18 10:00:00,
2013-03-18 06:42:00,18.0,13.0,-100.00,East,90,7.0,-999.0,78,-99.99,,,-99.99,0.000000,,2013-03-18 10:42:00,
2013-03-18 06:53:00,18.0,13.0,-100.00,East,90,7.0,-999.0,78,-99.99,,,-99.99,0.000000,,2013-03-18 10:53:00,
2013-03-18 07:00:00,19.0,13.0,-100.00,East,90,8.0,-999.0,77,-99.99,,,-99.99,0.000000,,2013-03-18 11:00:00,
2013-03-18 07:43:00,19.0,13.0,-100.00,East,90,8.0,-999.0,77,-99.99,,,-99.99,0.000000,,2013-03-18 11:43:00,
2013-03-18 07:53:00,19.0,13.0,-100.00,East,90,8.0,-999.0,77,-99.99,,,-99.99,0.000000,,2013-03-18 11:53:00,
2013-03-18 08:00:00,20.0,14.0,-100.00,East,90,8.0,-999.0,77,-99.99,,,-99.99,1.160000,,2013-03-18 12:00:00,
2013-03-18 08:43:00,20.0,14.0,-100.00,East,90,8.0,-999.0,77,-99.99,,,-99.99,1.160000,,2013-03-18 12:43:00,
2013-03-18 08:52:00,20.0,14.0,-100.00,East,90,8.0,-999.0,77,-99.99,,,-99.99,1.160000,,2013-03-18 12:52:00,
2013-03-18 09:00:00,21.0,16.0,-100.00,East,90,9.0,-999.0,78,-99.99,,,-99.99,54.520000,,2013-03-18 13:00:00,
2013-03-18 09:43:00,21.0,16.0,-100.00,East,90,9.0,-999.0,78,-99.99,,,-99.99,54.520000,,2013-03-18 13:43:00,
2013-03-18 09:52:00,21.0,16.0,-100.00,East,90,9.0,-999.0,78,-99.99,,,-99.99,54.520000,,2013-03-18 13:52:00,
2013-03-18 10:00:00,24.0,17.0,-100.00,East,90,9.0,-999.0,75,-99.99,,,-99.99,142.679993,,2013-03-18 14:00:00,
2013-03-18 10:42:00,24.0,17.0,-100.00,East,90,9.0,-999.0,75,-99.99,,,-99.99,142.679993,,2013-03-18 14:42:00,
2013-03-18 10:52:00,24.0,17.0,-100.00,East,90,9.0,-999.0,75,-99.99,,,-99.99,142.679993,,2013-03-18 14:52:00,
2013-03-18 11:00:00,25.0,18.0,-100.00,East,90,10.0,-999.0,74,-99.99,,,-99.99,160.080002,,2013-03-18 15:00:00,
2013-03-18 11:43:00,25.0,18.0,-100.00,East,90,10.0,-999.0,74,-99.99,,,-99.99,160.080002,,2013-03-18 15:43:00,
2013-03-18 11:52:00,25.0,18.0,-100.00,East,90,10.0,-999.0,74,-99.99,,,-99.99,160.080002,,2013-03-18 15:52:00,
2013-03-18 12:00:00,27.0,20.0,-100.00,East,90,9.0,-999.0,74,-99.99,,,-99.99,167.039993,,2013-03-18 16:00:00,
2013-03-18 12:42:00,27.0,20.0,-100.00,East,90,9.0,-999.0,74,-99.99,,,-99.99,167.039993,,2013-03-18 16:42:00,
2013-03-18 12:53:00,27.0,20.0,-100.00,East,90,9.0,-999.0,74,-99.99,,,-99.99,167.039993,,2013-03-18 16:53:00,
2013-03-18 13:00:00,27.0,21.0,-100.00,East,90,9.0,-999.0,77,-99.99,,,-99.99,178.639999,,2013-03-18 17:00:00,
2013-03-18 13:43:00,27.0,21.0,-100.00,East,90,9.0,-999.0,77,-99.99,,,-99.99,178.639999,,2013-03-18 17:43:00,
2013-03-18 13:52:00,27.0,21.0,-100.00,East,90,9.0,-999.0,77,-99.99,,,-99.99,178.639999,,2013-03-18 17:52:00,
2013-03-18 14:00:00,28.0,24.0,-100.00,East,90,8.0,-999.0,84,-99.99,,,-99.99,245.919998,,2013-03-18 18:00:00,
2013-03-18 14:42:00,28.0,24.0,-100.00,East,90,8.0,-999.0,84,-99.99,,,-99.99,245.919998,,2013-03-18 18:42:00,
2013-03-18 14:52:00,28.0,24.0,-100.00,East,90,8.0,-999.0,84,-99.99,,,-99.99,245.919998,,2013-03-18 18:52:00,
2013-03-18 15:00:00,29.0,25.0,-100.00,East,90,9.0,-999.0,87,-99.99,,,-99.99,180.960007,,2013-03-18 19:00:00,
2013-03-18 15:42:00,29.0,25.0,-100.00,East,90,9.0,-999.0,87,-99.99,,,-99.99,180.960007,,2013-03-18 19:42:00,
2013-03-18 15:52:00,29.0,25.0,-100.00,East,90,9.0,-999.0,87,-99.99,,,-99.99,180.960007,,2013-03-18 19:52:00,
2013-03-18 16:00:00,29.0,27.0,-100.00,ESE,112,6.0,-999.0,92,-99.99,,,-99.99,75.400002,,2013-03-18 20:00:00,
2013-03-18 16:43:00,29.0,27.0,-100.00,ESE,112,6.0,-999.0,92,-99.99,,,-99.99,75.400002,,2013-03-18 20:43:00,
2013-03-18 16:53:00,29.0,27.0,-100.00,ESE,112,6.0,-999.0,92,-99.99,,,-99.99,75.400002,,2013-03-18 20:53:00,
2013-03-18 17:00:00,30.0,29.0,-100.00,ESE,112,4.0,-999.0,94,-99.99,,,-99.99,99.760002,,2013-03-18 21:00:00,
2013-03-18 17:43:00,30.0,29.0,-100.00,ESE,112,4.0,-999.0,94,-99.99,,,-99.99,99.760002,,2013-03-18 21:43:00,
2013-03-18 17:53:00,30.0,29.0,-100.00,ESE,112,4.0,-999.0,94,-99.99,,,-99.99,99.760002,,2013-03-18 21:53:00,
2013-03-18 18:00:00,31.0,29.0,-100.00,ESE,112,4.0,-999.0,95,-99.99,,,-99.99,107.879997,,2013-03-18 22:00:00,
2013-03-18 18:43:00,31.0,29.0,-100.00,ESE,112,4.0,-999.0,95,-99.99,,,-99.99,107.879997,,2013-03-18 22:43:00,
2013-03-18 18:53:00,31.0,29.0,-100.00,ESE,112,4.0,-999.0,95,-99.99,,,-99.99,107.879997,,2013-03-18 22:53:00,
2013-03-18 19:00:00,31.0,30.0,-100.00,SE,135,2.0,-999.0,96,-99.99,,,-99.99,42.919998,,2013-03-18 23:00:00,
2013-03-18 19:43:00,31.0,30.0,-100.00,SE,135,2.0,-999.0,96,-99.99,,,-99.99,42.919998,,2013-03-18 23:43:00,
2013-03-18 19:53:00,31.0,30.0,-100.00,SE,135,2.0,-999.0,96,-99.99,,,-99.99,42.919998,,2013-03-18 23:53:00,
2013-03-18 21:00:00,31.0,30.0,-100.00,SW,225,3.0,-999.0,97,-99.99,,,-99.99,0.000000,,2013-03-19 01:00:00,
2013-03-18 21:43:00,31.0,30.0,-100.00,SW,225,3.0,-999.0,97,-99.99,,,-99.99,0.000000,,2013-03-19 01:43:00,
2013-03-18 21:53:00,31.0,30.0,-100.00,SW,225,3.0,-999.0,97,-99.99,,,-99.99,0.000000,,2013-03-19 01:53:00,
2013-03-18 22:00:00,31.0,30.0,-100.00,WSW,247,7.0,-999.0,96,-99.99,,,-99.99,0.000000,,2013-03-19 02:00:00,
2013-03-18 22:43:00,31.0,30.0,-100.00,WSW,247,7.0,-999.0,96,-99.99,,,-99.99,0.000000,,2013-03-19 02:43:00,
2013-03-18 22:53:00,31.0,30.0,-100.00,WSW,247,7.0,-999.0,96,-99.99,,,-99.99,0.000000,,2013-03-19 02:53:00,
2013-03-18 23:00:00,31.0,30.0,-100.00,WSW,247,8.0,-999.0,93,-99.99,,,-99.99,0.000000,,2013-03-19 03:00:00,
2013-03-18 23:43:00,31.0,30.0,-100.00,WSW,247,8.0,-999.0,93,-99.99,,,-99.99,0.000000,,2013-03-19 03:43:00,
2013-03-18 23:54:00,31.0,30.0,-100.00,WSW,247,8.0,-999.0,93,-99.99,,,-99.99,0.000000,,2013-03-19 03:54:00,